createdAt,value
2022-10-22T00:00:29.537Z,13.9
2022-10-22T00:01:45.841Z,13.9
2022-10-22T00:03:02.124Z,13.8
2022-10-22T00:04:18.433Z,13.8
2022-10-22T00:05:34.708Z,13.8
2022-10-22T00:06:50.032Z,13.9
2022-10-22T00:08:06.325Z,13.8
2022-10-22T00:09:22.622Z,13.8
2022-10-22T00:10:38.906Z,13.8
2022-10-22T00:11:55.197Z,13.8
2022-10-22T00:13:11.492Z,13.9
2022-10-22T00:14:27.800Z,13.9
2022-10-22T00:15:44.084Z,13.9
2022-10-22T00:17:00.390Z,13.9
2022-10-22T00:18:16.670Z,13.9
2022-10-22T00:19:32.966Z,13.9
2022-10-22T00:20:49.255Z,13.9
2022-10-22T00:22:05.557Z,13.9
2022-10-22T00:23:20.862Z,13.9
2022-10-22T00:24:37.167Z,13.9
2022-10-22T00:25:53.465Z,13.9
2022-10-22T00:27:09.760Z,13.9
2022-10-22T00:28:26.040Z,13.9
2022-10-22T00:30:58.627Z,13.9
2022-10-22T00:32:14.921Z,13.9
2022-10-22T00:33:31.213Z,13.9
2022-10-22T00:34:47.502Z,13.9
2022-10-22T00:36:03.801Z,13.9
2022-10-22T00:37:20.102Z,13.9
2022-10-22T00:38:36.390Z,13.9
2022-10-22T00:39:51.712Z,13.9
2022-10-22T00:41:07.998Z,13.9
2022-10-22T00:42:24.287Z,13.9
2022-10-22T00:43:40.598Z,13.9
2022-10-22T00:44:56.880Z,13.9
2022-10-22T00:46:13.172Z,13.9
2022-10-22T00:47:29.479Z,13.9
2022-10-22T00:48:45.761Z,13.9
2022-10-22T00:50:02.070Z,13.9
2022-10-22T00:51:18.361Z,13.9
2022-10-22T00:52:34.640Z,13.9
2022-10-22T00:53:50.931Z,13.9
2022-10-22T00:55:07.232Z,13.9
2022-10-22T00:56:22.538Z,13.9
2022-10-22T00:57:38.826Z,13.9
2022-10-22T00:58:55.122Z,13.9
2022-10-22T01:00:11.421Z,13.9
2022-10-22T01:01:27.715Z,13.9
2022-10-22T01:02:44.006Z,13.9
2022-10-22T01:04:00.314Z,13.9
2022-10-22T01:05:16.611Z,13.9
2022-10-22T01:06:32.896Z,13.9
2022-10-22T01:07:49.197Z,13.9
2022-10-22T01:09:05.478Z,13.9
2022-10-22T01:10:21.786Z,13.9
2022-10-22T01:11:38.063Z,13.9
2022-10-22T01:12:53.376Z,13.9
2022-10-22T01:14:09.674Z,13.9
2022-10-22T01:15:25.960Z,13.9
2022-10-22T01:16:42.261Z,14
2022-10-22T01:17:58.557Z,14
2022-10-22T01:19:14.859Z,14
2022-10-22T01:20:31.136Z,14
2022-10-22T01:21:47.434Z,14
2022-10-22T01:23:03.733Z,14
2022-10-22T01:24:20.037Z,14
2022-10-22T01:25:36.332Z,14
2022-10-22T01:26:52.615Z,14
2022-10-22T01:28:08.905Z,14
2022-10-22T01:29:24.216Z,14
2022-10-22T01:30:40.516Z,14
2022-10-22T01:31:56.818Z,14.1
2022-10-22T01:33:13.103Z,14.1
2022-10-22T01:34:29.390Z,14.1
2022-10-22T01:35:45.692Z,14.1
2022-10-22T01:37:01.983Z,14.1
2022-10-22T01:38:18.282Z,14.1
2022-10-22T01:39:34.574Z,14.1
2022-10-22T01:40:50.877Z,14.1
2022-10-22T01:42:07.153Z,14.1
2022-10-22T01:43:23.446Z,14.1
2022-10-22T01:44:39.741Z,14
2022-10-22T01:45:55.051Z,14
2022-10-22T01:47:11.343Z,14
2022-10-22T01:48:27.654Z,14
2022-10-22T01:49:43.952Z,14
2022-10-22T01:51:00.245Z,14
2022-10-22T01:52:16.527Z,14.1
2022-10-22T01:53:32.825Z,14
2022-10-22T01:54:49.117Z,14.1
2022-10-22T01:56:05.403Z,14.1
2022-10-22T01:57:21.714Z,14.1
2022-10-22T01:58:37.999Z,14.1
2022-10-22T01:59:54.284Z,14.1
2022-10-22T02:01:10.594Z,14.1
2022-10-22T02:02:25.889Z,14.1
2022-10-22T02:03:42.197Z,14.1
2022-10-22T02:04:58.485Z,14.1
2022-10-22T02:06:14.778Z,14.1
2022-10-22T02:07:31.079Z,14.2
2022-10-22T02:08:47.363Z,14.1
2022-10-22T02:10:03.658Z,14.1
2022-10-22T02:11:19.954Z,14.2
2022-10-22T02:12:36.266Z,14.1
2022-10-22T02:13:52.558Z,14.2
2022-10-22T02:15:08.845Z,14.1
2022-10-22T02:16:25.131Z,14.2
2022-10-22T02:17:41.426Z,14.1
2022-10-22T02:18:56.734Z,14.2
2022-10-22T02:20:13.023Z,14.2
2022-10-22T02:21:29.315Z,14.2
2022-10-22T02:22:45.615Z,14.2
2022-10-22T02:24:01.918Z,14.2
2022-10-22T02:25:18.219Z,14.1
2022-10-22T02:26:34.493Z,14.2
2022-10-22T02:27:50.786Z,14.1
2022-10-22T02:29:07.087Z,14.1
2022-10-22T02:30:23.384Z,14.1
2022-10-22T02:31:39.681Z,14.1
2022-10-22T02:32:55.969Z,14.1
2022-10-22T02:34:12.265Z,14.1
2022-10-22T02:35:27.569Z,14.1
2022-10-22T02:36:43.862Z,14.1
2022-10-22T02:38:00.165Z,14.1
2022-10-22T02:39:16.449Z,14
2022-10-22T02:40:32.758Z,14
2022-10-22T02:41:49.048Z,14
2022-10-22T02:43:05.338Z,14
2022-10-22T02:44:21.626Z,14
2022-10-22T02:45:37.921Z,14
2022-10-22T02:46:54.214Z,14
2022-10-22T02:48:10.517Z,14
2022-10-22T02:49:26.800Z,14
2022-10-22T02:50:43.111Z,14
2022-10-22T02:51:58.418Z,14
2022-10-22T02:53:14.717Z,13.9
2022-10-22T02:54:31.012Z,14
2022-10-22T02:55:47.300Z,13.9
2022-10-22T02:57:03.591Z,14
2022-10-22T02:58:19.890Z,13.9
2022-10-22T02:59:36.172Z,13.9
2022-10-22T03:00:52.474Z,13.9
2022-10-22T03:02:08.767Z,13.9
2022-10-22T03:03:25.060Z,13.9
2022-10-22T03:04:41.366Z,13.9
2022-10-22T03:05:57.661Z,13.9
2022-10-22T03:07:13.950Z,13.9
2022-10-22T03:08:29.255Z,13.9
2022-10-22T03:09:45.548Z,13.9
2022-10-22T03:11:01.844Z,13.9
2022-10-22T03:12:18.146Z,13.9
2022-10-22T03:13:34.435Z,13.9
2022-10-22T03:14:50.725Z,13.9
2022-10-22T03:16:06.036Z,13.9
2022-10-22T03:17:22.328Z,13.9
2022-10-22T03:18:38.634Z,13.9
2022-10-22T03:19:54.917Z,13.9
2022-10-22T03:21:11.224Z,13.9
2022-10-22T03:22:27.512Z,13.9
2022-10-22T03:23:43.810Z,13.9
2022-10-22T03:25:00.098Z,13.9
2022-10-22T03:26:16.395Z,13.9
2022-10-22T03:27:32.701Z,13.9
2022-10-22T03:28:48.976Z,13.9
2022-10-22T03:30:05.291Z,13.9
2022-10-22T03:31:21.572Z,13.9
2022-10-22T03:32:36.884Z,13.9
2022-10-22T03:33:53.177Z,13.8
2022-10-22T03:35:09.468Z,13.8
2022-10-22T03:36:25.767Z,13.8
2022-10-22T03:37:42.055Z,13.8
2022-10-22T03:38:58.358Z,13.8
2022-10-22T03:40:14.641Z,13.8
2022-10-22T03:41:30.943Z,13.8
2022-10-22T03:42:47.233Z,13.8
2022-10-22T03:44:03.532Z,13.8
2022-10-22T03:45:19.834Z,13.8
2022-10-22T03:46:36.113Z,13.8
2022-10-22T03:47:52.410Z,13.8
2022-10-22T03:49:07.725Z,13.8
2022-10-22T03:50:24.030Z,13.7
2022-10-22T03:51:40.304Z,13.8
2022-10-22T03:52:56.602Z,13.8
2022-10-22T03:54:12.897Z,13.8
2022-10-22T03:55:29.198Z,13.7
2022-10-22T03:56:45.489Z,13.7
2022-10-22T03:58:01.785Z,13.7
2022-10-22T03:59:18.077Z,13.7
2022-10-22T04:00:34.365Z,13.7
2022-10-22T04:01:50.666Z,13.7
2022-10-22T04:03:06.964Z,13.7
2022-10-22T04:04:23.260Z,13.7
2022-10-22T04:05:38.569Z,13.7
2022-10-22T04:06:54.871Z,13.8
2022-10-22T04:08:11.149Z,13.7
2022-10-22T04:09:27.451Z,13.8
2022-10-22T04:10:43.738Z,13.8
2022-10-22T04:12:00.029Z,13.8
2022-10-22T04:13:16.338Z,13.8
2022-10-22T04:14:32.621Z,13.8
2022-10-22T04:15:48.916Z,13.8
2022-10-22T04:17:05.216Z,13.8
2022-10-22T04:18:21.501Z,13.8
2022-10-22T04:19:37.793Z,13.8
2022-10-22T04:20:54.099Z,13.8
2022-10-22T04:22:09.401Z,13.8
2022-10-22T04:23:25.709Z,13.8
2022-10-22T04:24:41.997Z,13.8
2022-10-22T04:25:58.286Z,13.8
2022-10-22T04:27:14.588Z,13.8
2022-10-22T04:28:30.875Z,13.8
2022-10-22T04:29:47.169Z,13.8
2022-10-22T04:31:03.463Z,13.8
2022-10-22T04:32:19.760Z,13.8
2022-10-22T04:33:36.063Z,13.8
2022-10-22T04:34:52.343Z,13.7
2022-10-22T04:36:08.647Z,13.7
2022-10-22T04:37:24.931Z,13.8
2022-10-22T04:38:40.247Z,13.8
2022-10-22T04:39:56.538Z,13.7
2022-10-22T04:41:12.832Z,13.7
2022-10-22T04:42:29.123Z,13.7
2022-10-22T04:43:45.419Z,13.7
2022-10-22T04:45:01.713Z,13.7
2022-10-22T04:46:18.004Z,13.7
2022-10-22T04:47:34.300Z,13.7
2022-10-22T04:48:50.604Z,13.7
2022-10-22T04:50:06.899Z,13.8
2022-10-22T04:51:23.196Z,13.8
2022-10-22T04:52:39.488Z,13.8
2022-10-22T04:53:55.784Z,13.7
2022-10-22T04:55:11.084Z,13.8
2022-10-22T04:57:43.672Z,13.8
2022-10-22T04:58:59.969Z,13.8
2022-10-22T05:00:16.265Z,13.8
2022-10-22T05:01:32.558Z,13.8
2022-10-22T05:02:48.843Z,13.8
2022-10-22T05:04:05.146Z,13.8
2022-10-22T05:05:21.437Z,13.8
2022-10-22T05:06:37.738Z,13.8
2022-10-22T05:07:54.020Z,13.8
2022-10-22T05:09:10.319Z,13.8
2022-10-22T05:10:26.621Z,13.8
2022-10-22T05:11:41.920Z,13.8
2022-10-22T05:12:58.211Z,13.8
2022-10-22T05:14:14.509Z,13.8
2022-10-22T05:15:30.810Z,13.8
2022-10-22T05:16:47.099Z,13.8
2022-10-22T05:18:03.339Z,13.8
2022-10-22T05:19:19.640Z,13.8
2022-10-22T05:20:35.884Z,13.8
2022-10-22T05:21:52.134Z,13.8
2022-10-22T05:23:08.423Z,13.8
2022-10-22T05:24:24.677Z,13.8
2022-10-22T05:25:40.908Z,13.7
2022-10-22T05:26:57.146Z,13.8
2022-10-22T05:28:12.416Z,13.7
2022-10-22T05:29:28.657Z,13.7
2022-10-22T05:30:44.888Z,13.7
2022-10-22T05:32:01.123Z,13.7
2022-10-22T05:33:17.381Z,13.7
2022-10-22T05:34:33.621Z,13.7
2022-10-22T05:35:49.852Z,13.7
2022-10-22T05:37:06.102Z,13.7
2022-10-22T05:38:22.332Z,13.6
2022-10-22T05:39:38.563Z,13.6
2022-10-22T05:40:54.818Z,13.7
2022-10-22T05:42:11.058Z,13.7
2022-10-22T05:43:27.295Z,13.7
2022-10-22T05:44:42.548Z,13.7
2022-10-22T05:45:58.789Z,13.7
2022-10-22T05:47:15.026Z,13.7
2022-10-22T05:48:31.274Z,13.7
2022-10-22T05:49:47.518Z,13.7
2022-10-22T05:51:03.748Z,13.7
2022-10-22T05:52:19.989Z,13.7
2022-10-22T05:53:36.224Z,13.7
2022-10-22T05:54:52.479Z,13.7
2022-10-22T05:56:08.714Z,13.7
2022-10-22T05:57:24.955Z,13.7
2022-10-22T05:58:41.195Z,13.7
2022-10-22T05:59:57.430Z,13.7
2022-10-22T06:01:12.677Z,13.7
2022-10-22T06:02:28.923Z,13.7
2022-10-22T06:03:45.167Z,13.7
2022-10-22T06:05:01.397Z,13.7
2022-10-22T06:06:17.647Z,13.7
2022-10-22T06:07:33.888Z,13.7
2022-10-22T06:08:50.127Z,13.7
2022-10-22T06:10:06.359Z,13.7
2022-10-22T06:11:22.606Z,13.7
2022-10-22T06:12:38.855Z,13.7
2022-10-22T06:13:55.089Z,13.8
2022-10-22T06:15:11.334Z,13.8
2022-10-22T06:16:27.577Z,13.8
2022-10-22T06:17:42.822Z,13.8
2022-10-22T06:18:59.060Z,13.8
2022-10-22T06:20:15.294Z,13.9
2022-10-22T06:21:31.538Z,13.9
2022-10-22T06:22:47.783Z,13.9
2022-10-22T06:24:04.018Z,13.9
2022-10-22T06:25:20.265Z,13.9
2022-10-22T06:26:36.504Z,13.9
2022-10-22T06:27:52.750Z,14
2022-10-22T06:29:08.977Z,14
2022-10-22T06:30:25.215Z,14
2022-10-22T06:31:41.460Z,14
2022-10-22T06:32:57.701Z,14
2022-10-22T06:34:12.964Z,14.1
2022-10-22T06:35:29.208Z,14.1
2022-10-22T06:36:45.433Z,14.1
2022-10-22T06:38:01.677Z,14.1
2022-10-22T06:39:17.912Z,14.1
2022-10-22T06:40:34.172Z,14.1
2022-10-22T06:41:50.399Z,14.2
2022-10-22T06:43:06.644Z,14.2
2022-10-22T06:44:22.877Z,14.2
2022-10-22T06:45:39.123Z,14.3
2022-10-22T06:46:55.356Z,14.2
2022-10-22T06:48:11.606Z,14.3
2022-10-22T06:49:27.837Z,14.3
2022-10-22T06:50:43.103Z,14.3
2022-10-22T06:51:59.340Z,14.4
2022-10-22T06:53:15.568Z,14.4
2022-10-22T06:54:31.809Z,14.4
2022-10-22T06:55:48.070Z,14.4
2022-10-22T06:57:04.298Z,14.4
2022-10-22T06:58:20.533Z,14.4
2022-10-22T06:59:36.778Z,14.4
2022-10-22T07:00:53.010Z,14.4
2022-10-22T07:02:09.266Z,14.4
2022-10-22T07:03:25.493Z,14.4
2022-10-22T07:04:41.743Z,14.4
2022-10-22T07:05:57.973Z,14.4
2022-10-22T07:07:13.246Z,14.5
2022-10-22T07:08:29.479Z,14.5
2022-10-22T07:09:45.711Z,14.5
2022-10-22T07:11:01.963Z,14.5
2022-10-22T07:12:18.191Z,14.5
2022-10-22T07:13:34.433Z,14.5
2022-10-22T07:14:50.671Z,14.5
2022-10-22T07:16:06.913Z,14.5
2022-10-22T07:17:23.155Z,14.5
2022-10-22T07:18:39.387Z,14.6
2022-10-22T07:19:55.631Z,14.6
2022-10-22T07:21:11.876Z,14.6
2022-10-22T07:22:28.111Z,14.6
2022-10-22T07:23:43.377Z,14.6
2022-10-22T07:24:59.613Z,14.6
2022-10-22T07:26:15.852Z,14.6
2022-10-22T07:27:32.084Z,14.7
2022-10-22T07:28:48.334Z,14.7
2022-10-22T07:30:04.565Z,14.7
2022-10-22T07:31:19.839Z,14.7
2022-10-22T07:32:36.075Z,14.7
2022-10-22T07:33:52.309Z,14.8
2022-10-22T07:35:08.553Z,14.8
2022-10-22T07:36:24.795Z,14.8
2022-10-22T07:37:41.022Z,14.8
2022-10-22T07:38:57.274Z,14.8
2022-10-22T07:40:13.502Z,14.8
2022-10-22T07:41:29.751Z,14.9
2022-10-22T07:42:45.998Z,14.9
2022-10-22T07:44:02.229Z,14.9
2022-10-22T07:45:18.470Z,15
2022-10-22T07:46:34.711Z,15
2022-10-22T07:47:49.981Z,15
2022-10-22T07:49:06.208Z,15
2022-10-22T07:50:22.453Z,15
2022-10-22T07:51:38.679Z,15
2022-10-22T07:52:54.928Z,15.1
2022-10-22T07:54:11.171Z,15.1
2022-10-22T07:55:27.407Z,15.1
2022-10-22T07:56:43.660Z,15.1
2022-10-22T07:57:59.886Z,15.1
2022-10-22T07:59:16.119Z,15.1
2022-10-22T08:00:32.359Z,15.1
2022-10-22T08:01:48.608Z,15.2
2022-10-22T08:03:04.840Z,15.2
2022-10-22T08:04:20.112Z,15.1
2022-10-22T08:05:36.336Z,15.2
2022-10-22T08:06:52.592Z,15.2
2022-10-22T08:08:08.826Z,15.2
2022-10-22T08:09:25.055Z,15.2
2022-10-22T08:10:41.295Z,15.2
2022-10-22T08:11:57.542Z,15.2
2022-10-22T08:13:13.788Z,15.3
2022-10-22T08:14:30.027Z,15.3
2022-10-22T08:15:46.262Z,15.3
2022-10-22T08:17:02.511Z,15.3
2022-10-22T08:18:18.736Z,15.3
2022-10-22T08:19:34.976Z,15.3
2022-10-22T08:20:50.242Z,15.3
2022-10-22T08:22:06.485Z,15.4
2022-10-22T08:23:22.721Z,15.4
2022-10-22T08:24:38.953Z,15.4
2022-10-22T08:25:55.196Z,15.4
2022-10-22T08:27:11.432Z,15.5
2022-10-22T08:28:27.687Z,15.4
2022-10-22T08:29:43.928Z,15.4
2022-10-22T08:31:00.157Z,15.5
2022-10-22T08:32:16.393Z,15.5
2022-10-22T08:33:32.644Z,15.5
2022-10-22T08:34:48.876Z,15.5
2022-10-22T08:36:05.114Z,15.5
2022-10-22T08:37:20.383Z,15.5
2022-10-22T08:38:36.611Z,15.5
2022-10-22T08:39:52.856Z,15.5
2022-10-22T08:41:09.095Z,15.5
2022-10-22T08:42:25.330Z,15.5
2022-10-22T08:43:41.583Z,15.5
2022-10-22T08:44:57.828Z,15.5
2022-10-22T08:46:14.055Z,15.5
2022-10-22T08:47:30.290Z,15.5
2022-10-22T08:48:46.531Z,15.5
2022-10-22T08:50:02.767Z,15.5
2022-10-22T08:51:19.019Z,15.5
2022-10-22T08:52:35.255Z,15.5
2022-10-22T08:53:50.512Z,15.5
2022-10-22T08:55:06.747Z,15.5
2022-10-22T08:56:22.988Z,15.5
2022-10-22T08:57:39.236Z,15.5
2022-10-22T08:58:55.468Z,15.5
2022-10-22T09:00:11.722Z,15.6
2022-10-22T09:01:27.950Z,15.6
2022-10-22T09:02:44.189Z,15.5
2022-10-22T09:04:00.441Z,15.5
2022-10-22T09:05:16.674Z,15.5
2022-10-22T09:06:32.921Z,15.5
2022-10-22T09:07:49.159Z,15.5
2022-10-22T09:09:05.387Z,15.5
2022-10-22T09:10:20.643Z,15.5
2022-10-22T09:11:36.888Z,15.5
2022-10-22T09:12:53.133Z,15.5
2022-10-22T09:14:09.370Z,15.5
2022-10-22T09:15:25.610Z,15.5
2022-10-22T09:16:41.863Z,15.5
2022-10-22T09:17:58.090Z,15.5
2022-10-22T09:19:14.335Z,15.5
2022-10-22T09:20:30.565Z,15.5
2022-10-22T09:21:46.808Z,15.5
2022-10-22T09:23:03.056Z,15.5
2022-10-22T09:24:19.288Z,15.5
2022-10-22T09:25:35.541Z,15.6
2022-10-22T09:26:50.793Z,15.6
2022-10-22T09:28:07.018Z,15.6
2022-10-22T09:29:23.258Z,15.6
2022-10-22T09:30:39.498Z,15.7
2022-10-22T09:31:55.750Z,15.7
2022-10-22T09:33:11.981Z,15.7
2022-10-22T09:34:28.217Z,15.8
2022-10-22T09:35:44.472Z,15.8
2022-10-22T09:37:00.711Z,15.9
2022-10-22T09:38:16.954Z,15.9
2022-10-22T09:39:33.183Z,16
2022-10-22T09:40:49.433Z,16.1
2022-10-22T09:42:05.664Z,16.8
2022-10-22T09:43:20.913Z,17.2
2022-10-22T09:44:37.177Z,17.4
2022-10-22T09:45:53.401Z,17.9
2022-10-22T09:47:09.632Z,18.4
2022-10-22T09:48:25.892Z,19.1
2022-10-22T09:49:42.120Z,19.8
2022-10-22T09:50:58.355Z,20.6
2022-10-22T09:52:14.597Z,21.3
2022-10-22T09:53:30.842Z,21.5
2022-10-22T09:54:47.079Z,22.4
2022-10-22T09:56:03.315Z,23.3
2022-10-22T09:57:19.559Z,24.1
2022-10-22T09:58:35.798Z,24
2022-10-22T09:59:51.051Z,23.8
2022-10-22T10:01:07.304Z,23.8
2022-10-22T10:02:23.539Z,24
2022-10-22T10:03:39.770Z,24.2
2022-10-22T10:04:56.016Z,24.6
2022-10-22T10:06:12.260Z,24.6
2022-10-22T10:07:28.516Z,23.1
2022-10-22T10:08:44.736Z,22.2
2022-10-22T10:10:00.987Z,22.2
2022-10-22T10:11:17.227Z,22.6
2022-10-22T10:12:33.459Z,22.6
2022-10-22T10:13:49.707Z,22.7
2022-10-22T10:15:05.934Z,22.7
2022-10-22T10:16:21.208Z,23
2022-10-22T10:17:37.438Z,23.6
2022-10-22T10:18:53.679Z,23.9
2022-10-22T10:20:09.933Z,23.8
2022-10-22T10:21:26.168Z,23.8
2022-10-22T10:22:42.394Z,23.8
2022-10-22T10:23:58.641Z,24.1
2022-10-22T10:25:14.873Z,24.3
2022-10-22T10:26:31.116Z,24.4
2022-10-22T10:27:47.371Z,24.7
2022-10-22T10:29:03.600Z,25.1
2022-10-22T10:30:19.851Z,25.2
2022-10-22T10:31:36.077Z,24.4
2022-10-22T10:32:51.337Z,24.2
2022-10-22T10:34:07.576Z,23.6
2022-10-22T10:35:23.815Z,23.1
2022-10-22T10:36:40.068Z,22.8
2022-10-22T10:37:56.307Z,22.5
2022-10-22T10:39:12.545Z,22.3
2022-10-22T10:40:28.777Z,22.2
2022-10-22T10:41:45.016Z,22.3
2022-10-22T10:43:01.274Z,22.1
2022-10-22T10:44:17.502Z,22.4
2022-10-22T10:45:33.749Z,22.8
2022-10-22T10:46:49.988Z,23.1
2022-10-22T10:48:06.229Z,23.5
2022-10-22T10:49:21.475Z,24.1
2022-10-22T10:50:37.732Z,24.1
2022-10-22T10:51:53.957Z,24.3
2022-10-22T10:53:10.203Z,24.4
2022-10-22T10:54:26.441Z,24.8
2022-10-22T10:55:42.693Z,24.4
2022-10-22T10:56:58.926Z,24.4
2022-10-22T10:58:15.165Z,23.7
2022-10-22T10:59:31.416Z,23.1
2022-10-22T11:00:47.640Z,23.2
2022-10-22T11:02:03.900Z,23.3
2022-10-22T11:03:20.124Z,23.3
2022-10-22T11:04:36.368Z,23
2022-10-22T11:05:51.617Z,22.6
2022-10-22T11:07:07.864Z,22.2
2022-10-22T11:08:24.104Z,21.5
2022-10-22T11:09:40.356Z,21.4
2022-10-22T11:10:56.586Z,21.4
2022-10-22T11:12:12.830Z,21.5
2022-10-22T11:13:29.069Z,21.5
2022-10-22T11:14:45.306Z,21.5
2022-10-22T11:16:01.557Z,21.6
2022-10-22T11:17:17.802Z,21.5
2022-10-22T11:18:34.028Z,21.5
2022-10-22T11:19:50.266Z,21.5
2022-10-22T11:21:06.506Z,21.5
2022-10-22T11:22:21.765Z,21.4
2022-10-22T11:23:38.001Z,21.4
2022-10-22T11:24:54.255Z,21.4
2022-10-22T11:26:10.494Z,21.6
2022-10-22T11:27:26.737Z,21.6
2022-10-22T11:28:42.967Z,21.7
2022-10-22T11:29:59.207Z,21.7
2022-10-22T11:31:15.456Z,21.8
2022-10-22T11:32:31.709Z,22.1
2022-10-22T11:33:47.947Z,22.4
2022-10-22T11:35:04.180Z,22.9
2022-10-22T11:36:20.423Z,23
2022-10-22T11:37:36.665Z,22.9
2022-10-22T11:38:51.910Z,22.7
2022-10-22T11:41:24.394Z,21.7
2022-10-22T11:42:40.643Z,21.5
2022-10-22T11:43:56.880Z,21.4
2022-10-22T11:45:13.108Z,21.5
2022-10-22T11:46:28.371Z,21.9
2022-10-22T11:47:44.623Z,22.5
2022-10-22T11:49:00.849Z,22.6
2022-10-22T11:50:17.089Z,22.9
2022-10-22T11:51:33.333Z,22.6
2022-10-22T11:52:49.573Z,22.8
2022-10-22T11:54:05.813Z,22.3
2022-10-22T11:55:22.067Z,22.1
2022-10-22T11:56:38.298Z,21.8
2022-10-22T11:57:54.535Z,21.8
2022-10-22T11:59:10.776Z,21.7
2022-10-22T12:00:27.013Z,21.4
2022-10-22T12:01:43.267Z,21.3
2022-10-22T12:02:58.511Z,21.4
2022-10-22T12:04:14.770Z,21.5
2022-10-22T12:05:31.006Z,21.5
2022-10-22T12:06:47.231Z,21.6
2022-10-22T12:08:03.476Z,21.7
2022-10-22T12:09:19.715Z,21.8
2022-10-22T12:10:35.966Z,22.1
2022-10-22T12:11:52.197Z,22.5
2022-10-22T12:13:08.447Z,22.8
2022-10-22T12:14:24.679Z,22.8
2022-10-22T12:15:40.912Z,22.6
2022-10-22T12:16:57.153Z,22.5
2022-10-22T12:18:13.393Z,22.3
2022-10-22T12:19:28.653Z,22.4
2022-10-22T12:20:44.892Z,22
2022-10-22T12:22:01.147Z,22.1
2022-10-22T12:23:17.381Z,21.9
2022-10-22T12:24:33.611Z,22.1
2022-10-22T12:25:49.862Z,22.1
2022-10-22T12:27:06.101Z,22.2
2022-10-22T12:28:22.349Z,22.4
2022-10-22T12:29:38.583Z,22.3
2022-10-22T12:30:54.814Z,22.7
2022-10-22T12:32:11.057Z,22.9
2022-10-22T12:33:27.295Z,22.9
2022-10-22T12:34:43.551Z,22.9
2022-10-22T12:35:58.803Z,23.2
2022-10-22T12:37:15.031Z,23.6
2022-10-22T12:38:31.272Z,23.2
2022-10-22T12:39:47.514Z,22.5
2022-10-22T12:41:03.757Z,22.3
2022-10-22T12:42:19.999Z,22.4
2022-10-22T12:43:36.256Z,22.8
2022-10-22T12:44:52.484Z,22.8
2022-10-22T12:46:08.728Z,23.1
2022-10-22T12:47:24.964Z,23.3
2022-10-22T12:48:41.213Z,23.5
2022-10-22T12:49:57.461Z,23.3
2022-10-22T12:51:13.693Z,23.1
2022-10-22T12:52:28.940Z,23.2
2022-10-22T12:53:45.182Z,23.1
2022-10-22T12:55:01.431Z,22.6
2022-10-22T12:56:17.670Z,22.2
2022-10-22T12:57:33.912Z,21.8
2022-10-22T12:58:50.140Z,21.1
2022-10-22T13:00:06.393Z,20.9
2022-10-22T13:01:22.630Z,20.5
2022-10-22T13:02:38.871Z,20.3
2022-10-22T13:03:55.104Z,20.4
2022-10-22T13:05:11.355Z,20.3
2022-10-22T13:06:27.585Z,20.4
2022-10-22T13:07:43.824Z,20.4
2022-10-22T13:08:59.083Z,20.5
2022-10-22T13:10:15.322Z,20.5
2022-10-22T13:11:31.563Z,20.6
2022-10-22T13:12:47.810Z,20.7
2022-10-22T13:14:04.040Z,20.6
2022-10-22T13:15:20.292Z,20.4
2022-10-22T13:16:36.522Z,20.5
2022-10-22T13:17:52.762Z,20.7
2022-10-22T13:19:09.007Z,21.4
2022-10-22T13:20:25.252Z,22.1
2022-10-22T13:21:41.495Z,22.8
2022-10-22T13:22:57.720Z,23.1
2022-10-22T13:24:13.962Z,23
2022-10-22T13:25:29.221Z,23.1
2022-10-22T13:26:45.465Z,23
2022-10-22T13:28:01.700Z,22.8
2022-10-22T13:29:17.935Z,22.9
2022-10-22T13:30:34.178Z,23.2
2022-10-22T13:31:50.428Z,23.5
2022-10-22T13:33:06.654Z,24
2022-10-22T13:34:22.906Z,24.3
2022-10-22T13:35:39.142Z,24.1
2022-10-22T13:36:55.382Z,24.1
2022-10-22T13:38:11.629Z,24.3
2022-10-22T13:39:27.853Z,24
2022-10-22T13:40:44.096Z,24.2
2022-10-22T13:41:59.364Z,24.2
2022-10-22T13:43:15.594Z,24
2022-10-22T13:44:31.840Z,24
2022-10-22T13:45:48.074Z,24.1
2022-10-22T13:47:04.328Z,24.1
2022-10-22T13:48:20.561Z,24.1
2022-10-22T13:49:36.804Z,24.1
2022-10-22T13:50:53.038Z,23.8
2022-10-22T13:52:09.281Z,24.2
2022-10-22T13:53:25.514Z,24.5
2022-10-22T13:54:41.759Z,24.9
2022-10-22T13:55:57.991Z,24.5
2022-10-22T13:57:14.248Z,24
2022-10-22T13:58:29.491Z,23.2
2022-10-22T13:59:45.733Z,22.6
2022-10-22T14:01:01.983Z,22.5
2022-10-22T14:02:18.212Z,22.3
2022-10-22T14:03:34.457Z,21.8
2022-10-22T14:04:50.704Z,21.3
2022-10-22T14:06:06.931Z,20.9
2022-10-22T14:07:23.189Z,20.6
2022-10-22T14:08:39.414Z,20.4
2022-10-22T14:09:55.666Z,20.4
2022-10-22T14:11:11.900Z,20.3
2022-10-22T14:12:28.146Z,20.1
2022-10-22T14:13:44.389Z,19.9
2022-10-22T14:14:59.630Z,19.9
2022-10-22T14:16:15.878Z,19.9
2022-10-22T14:17:32.117Z,19.8
2022-10-22T14:18:48.358Z,19.8
2022-10-22T14:20:04.593Z,19.7
2022-10-22T14:21:20.841Z,19.6
2022-10-22T14:22:37.077Z,19.6
2022-10-22T14:23:53.321Z,19.6
2022-10-22T14:25:09.554Z,19.6
2022-10-22T14:26:25.786Z,19.5
2022-10-22T14:27:42.042Z,19.4
2022-10-22T14:28:58.274Z,19.4
2022-10-22T14:30:14.514Z,19.4
2022-10-22T14:31:29.763Z,19.4
2022-10-22T14:32:46.007Z,19.3
2022-10-22T14:34:02.253Z,19.3
2022-10-22T14:35:18.484Z,19.3
2022-10-22T14:36:34.726Z,19.2
2022-10-22T14:37:50.968Z,19.1
2022-10-22T14:39:07.212Z,19.1
2022-10-22T14:40:23.457Z,19.1
2022-10-22T14:41:39.694Z,19.1
2022-10-22T14:42:55.940Z,19.1
2022-10-22T14:44:12.177Z,19
2022-10-22T14:45:28.421Z,18.9
2022-10-22T14:46:44.649Z,18.9
2022-10-22T14:47:59.908Z,18.9
2022-10-22T14:49:16.141Z,18.9
2022-10-22T14:50:32.383Z,18.9
2022-10-22T14:51:48.629Z,18.9
2022-10-22T14:53:04.862Z,18.8
2022-10-22T14:54:21.103Z,18.8
2022-10-22T14:55:37.350Z,18.8
2022-10-22T14:56:53.596Z,18.8
2022-10-22T14:58:09.821Z,18.8
2022-10-22T14:59:26.073Z,18.7
2022-10-22T15:00:42.301Z,18.6
2022-10-22T15:01:58.548Z,18.6
2022-10-22T15:03:14.783Z,18.5
2022-10-22T15:04:30.047Z,18.5
2022-10-22T15:05:46.288Z,18.5
2022-10-22T15:07:02.524Z,18.4
2022-10-22T15:08:18.771Z,18.4
2022-10-22T15:09:35.011Z,18.4
2022-10-22T15:10:51.244Z,18.3
2022-10-22T15:12:07.485Z,18.3
2022-10-22T15:13:23.735Z,18.3
2022-10-22T15:14:39.975Z,18.3
2022-10-22T15:15:56.211Z,18.3
2022-10-22T15:17:12.456Z,18.2
2022-10-22T15:18:28.685Z,18.2
2022-10-22T15:19:44.925Z,18.2
2022-10-22T15:21:00.183Z,18.2
2022-10-22T15:22:16.432Z,18.3
2022-10-22T15:23:32.657Z,18.3
2022-10-22T15:24:48.897Z,18.3
2022-10-22T15:26:05.144Z,18.3
2022-10-22T15:27:21.375Z,18.4
2022-10-22T15:28:37.631Z,18.4
2022-10-22T15:29:53.869Z,18.4
2022-10-22T15:31:10.100Z,18.4
2022-10-22T15:32:26.335Z,18.5
2022-10-22T15:33:42.585Z,18.4
2022-10-22T15:34:58.824Z,18.4
2022-10-22T15:36:15.066Z,18.4
2022-10-22T15:37:30.322Z,18.4
2022-10-22T15:38:46.558Z,18.4
2022-10-22T15:40:02.798Z,18.4
2022-10-22T15:41:19.045Z,18.4
2022-10-22T15:42:35.280Z,18.4
2022-10-22T15:43:51.531Z,18.3
2022-10-22T15:45:07.760Z,18.2
2022-10-22T15:46:23.998Z,18.2
2022-10-22T15:47:40.240Z,18.1
2022-10-22T15:48:56.480Z,18.1
2022-10-22T15:50:12.724Z,18
2022-10-22T15:51:28.951Z,18
2022-10-22T15:52:45.198Z,18
2022-10-22T15:54:00.452Z,17.9
2022-10-22T15:55:16.690Z,17.9
2022-10-22T15:56:32.934Z,17.9
2022-10-22T15:57:49.174Z,17.9
2022-10-22T15:59:05.425Z,17.9
2022-10-22T16:00:21.652Z,17.8
2022-10-22T16:01:36.920Z,17.7
2022-10-22T16:02:53.168Z,17.7
2022-10-22T16:04:09.400Z,17.7
2022-10-22T16:05:25.638Z,17.6
2022-10-22T16:06:41.871Z,17.6
2022-10-22T16:07:58.115Z,17.5
2022-10-22T16:09:14.355Z,17.5
2022-10-22T16:10:30.593Z,17.5
2022-10-22T16:11:46.846Z,17.4
2022-10-22T16:13:03.085Z,17.4
2022-10-22T16:14:19.314Z,17.4
2022-10-22T16:15:35.558Z,17.4
2022-10-22T16:16:51.803Z,17.3
2022-10-22T16:18:07.053Z,17.3
2022-10-22T16:19:23.286Z,17.3
2022-10-22T16:20:39.533Z,17.2
2022-10-22T16:21:55.782Z,17.2
2022-10-22T16:23:12.024Z,17.2
2022-10-22T16:24:28.260Z,17.2
2022-10-22T16:25:44.490Z,17.1
2022-10-22T16:27:00.738Z,17.1
2022-10-22T16:28:16.969Z,17
2022-10-22T16:29:33.222Z,17
2022-10-22T16:30:49.453Z,16.9
2022-10-22T16:32:05.690Z,16.9
2022-10-22T16:33:21.929Z,16.9
2022-10-22T16:34:37.253Z,16.9
2022-10-22T16:35:53.539Z,16.8
2022-10-22T16:37:09.833Z,16.8
2022-10-22T16:38:26.116Z,16.8
2022-10-22T16:39:42.423Z,16.8
2022-10-22T16:40:58.714Z,16.8
2022-10-22T16:42:15.005Z,16.8
2022-10-22T16:43:31.314Z,16.8
2022-10-22T16:44:47.600Z,16.8
2022-10-22T16:46:03.896Z,16.8
2022-10-22T16:47:20.181Z,16.8
2022-10-22T16:48:36.482Z,16.8
2022-10-22T16:49:52.771Z,16.7
2022-10-22T16:51:08.090Z,16.7
2022-10-22T16:52:24.367Z,16.7
2022-10-22T16:53:40.670Z,16.7
2022-10-22T16:54:56.955Z,16.7
2022-10-22T16:56:13.249Z,16.6
2022-10-22T16:57:29.544Z,16.6
2022-10-22T16:58:45.000Z,16.6
2022-10-22T17:00:02.144Z,16.6
2022-10-22T17:01:18.425Z,16.5
2022-10-22T17:02:34.719Z,16.5